Thunder radar more information blitzortung!


Radar de pluja more information rain snow radar


Visita la nostra xarxa de llocs de meteo:

Template documentation
and downloads

And another site



No particular awareness of the weather is required.    There are no Weather-warnings

Pagina Historial Weather Underground text

Diari Resum Agost 30, 2017 Unitats:  Tant    Imperial   Mètric
« Previous Dia
SegĂźent Dia »
Diari Setmana Mensual Anual Personalitzada
  Maxima: Minima: Media:
Temperatura: 82.8 °F /  28.2 °C 65.7 °F /  18.7 °C 74.5 °F /  23.6 °C
Punt de rosada: 65.8 °F /  18.8 °C 55.8 °F /  13.2 °C 61.2 °F /  16.2 °C
Humitat: 84 % 48 % 65 %
Wind Speed: 11.5 mph /  18.5 km/h - 3.7 mph /  6 km/h
RĂ fegues de vent: 11.5 mph /  18.5 km/h - -
Vent:- - SW
Pression baro: 30 in /  1015.8 hPa 29.9 in /  1011.7 hPa -
Precipitacions: 0 in /  0.0 mm    
Historical Graphs
 
 
Dades de taula per Agost 30, 2017
Temps Temperatura Punt de rosada Pression baro Vent Wind Speed RĂ fegues de vent Humitat Rainfall Rate (Hourly)
00:01 73.9 °F /  23.3 °C 55.8 °F /  13.2 °C 29.9 in /  1013.8 hPa SW 3.5 mph /  5.6 km/h   53 % 0 in /  0.0 mm
00:05 69.4 °F /  20.8 °C 57.2 °F /  14.0 °C 30 in /  1015.8 hPa WSW 5 mph /  8.0 km/h 8 mph /  12.9 km/h 65 % 0 in /  0.0 mm
00:15 69.3 °F /  20.7 °C 57.7 °F /  14.3 °C 30 in /  1014.8 hPa WSW 2 mph /  3.2 km/h 4 mph /  6.4 km/h 67 % 0 in /  0.0 mm
00:30 69.1 °F /  20.6 °C 57.7 °F /  14.3 °C 30 in /  1014.8 hPa WSW 2 mph /  3.2 km/h 5 mph /  8.0 km/h 67 % 0 in /  0.0 mm
00:40 69.3 °F /  20.7 °C 58.3 °F /  14.6 °C 30 in /  1014.8 hPa WSW 3 mph /  4.8 km/h 6 mph /  9.7 km/h 68 % 0 in /  0.0 mm
00:50 69.4 °F /  20.8 °C 58.5 °F /  14.7 °C 30 in /  1014.8 hPa WSW 1 mph /  1.6 km/h 6 mph /  9.7 km/h 68 % 0 in /  0.0 mm
01:00 69.3 °F /  20.7 °C 58.3 °F /  14.6 °C 30 in /  1014.8 hPa West 2 mph /  3.2 km/h 3 mph /  4.8 km/h 68 % 0 in /  0.0 mm
01:10 69.4 °F /  20.8 °C 58.5 °F /  14.7 °C 30 in /  1014.8 hPa WSW 2 mph /  3.2 km/h 3 mph /  4.8 km/h 68 % 0 in /  0.0 mm
01:20 69.1 °F /  20.6 °C 58.5 °F /  14.7 °C 30 in /  1014.8 hPa Calm   2 mph /  3.2 km/h 69 % 0 in /  0.0 mm
01:30 68.7 °F /  20.4 °C 58.5 °F /  14.7 °C 30 in /  1014.8 hPa WSW 2 mph /  3.2 km/h 3 mph /  4.8 km/h 70 % 0 in /  0.0 mm
01:40 68.7 °F /  20.4 °C 58.5 °F /  14.7 °C 30 in /  1014.8 hPa WSW 2 mph /  3.2 km/h 4 mph /  6.4 km/h 70 % 0 in /  0.0 mm
01:50 68.9 °F /  20.5 °C 58.6 °F /  14.8 °C 30 in /  1014.8 hPa SW 3 mph /  4.8 km/h 3 mph /  4.8 km/h 70 % 0 in /  0.0 mm
02:00 68.9 °F /  20.5 °C 59.2 °F /  15.1 °C 30 in /  1014.8 hPa WSW 2 mph /  3.2 km/h 2 mph /  3.2 km/h 71 % 0 in /  0.0 mm
02:10 68.5 °F /  20.3 °C 59.2 °F /  15.1 °C 30 in /  1014.8 hPa WSW 2 mph /  3.2 km/h 3 mph /  4.8 km/h 72 % 0 in /  0.0 mm
02:20 67.6 °F /  19.8 °C 59.4 °F /  15.2 °C 30 in /  1014.8 hPa WSW 2 mph /  3.2 km/h 3 mph /  4.8 km/h 75 % 0 in /  0.0 mm
02:30 67.1 °F /  19.5 °C 59.4 °F /  15.2 °C 30 in /  1015.8 hPa WSW 2 mph /  3.2 km/h 5 mph /  8.0 km/h 76 % 0 in /  0.0 mm
02:40 66.7 °F /  19.3 °C 59.4 °F /  15.2 °C 30 in /  1015.8 hPa WSW 2 mph /  3.2 km/h 3 mph /  4.8 km/h 77 % 0 in /  0.0 mm
02:50 66.6 °F /  19.2 °C 59.5 °F /  15.3 °C 30 in /  1015.8 hPa Calm   3 mph /  4.8 km/h 78 % 0 in /  0.0 mm
03:00 66.4 °F /  19.1 °C 60.1 °F /  15.6 °C 30 in /  1014.8 hPa Calm     80 % 0 in /  0.0 mm
03:10 66.4 °F /  19.1 °C 60.1 °F /  15.6 °C 30 in /  1014.8 hPa Calm   2 mph /  3.2 km/h 80 % 0 in /  0.0 mm
03:20 66.2 °F /  19.0 °C 59.7 °F /  15.4 °C 30 in /  1014.8 hPa SW 2 mph /  3.2 km/h 3 mph /  4.8 km/h 80 % 0 in /  0.0 mm
03:30 66.2 °F /  19.0 °C 60.3 °F /  15.7 °C 30 in /  1015.8 hPa Calm   3 mph /  4.8 km/h 81 % 0 in /  0.0 mm
03:40 66 °F /  18.9 °C 60.4 °F /  15.8 °C 30 in /  1015.8 hPa SW 2 mph /  3.2 km/h 2 mph /  3.2 km/h 82 % 0 in /  0.0 mm
03:50 66 °F /  18.9 °C 60.4 °F /  15.8 °C 30 in /  1014.8 hPa WSW 2 mph /  3.2 km/h 3 mph /  4.8 km/h 82 % 0 in /  0.0 mm
04:00 65.8 °F /  18.8 °C 60.4 °F /  15.8 °C 30 in /  1014.8 hPa WSW 1 mph /  1.6 km/h 3 mph /  4.8 km/h 83 % 0 in /  0.0 mm
04:10 65.7 °F /  18.7 °C 60.6 °F /  15.9 °C 30 in /  1014.8 hPa SW 1 mph /  1.6 km/h 2 mph /  3.2 km/h 84 % 0 in /  0.0 mm
04:20 65.7 °F /  18.7 °C 60.6 °F /  15.9 °C 30 in /  1014.8 hPa Calm   2 mph /  3.2 km/h 84 % 0 in /  0.0 mm
04:30 65.8 °F /  18.8 °C 61 °F /  16.1 °C 30 in /  1014.8 hPa Calm   2 mph /  3.2 km/h 84 % 0 in /  0.0 mm
04:40 66 °F /  18.9 °C 61 °F /  16.1 °C 30 in /  1014.8 hPa Calm   2 mph /  3.2 km/h 84 % 0 in /  0.0 mm
04:50 66.2 °F /  19.0 °C 61 °F /  16.1 °C 30 in /  1014.8 hPa SE 1 mph /  1.6 km/h 2 mph /  3.2 km/h 83 % 0 in /  0.0 mm
05:00 66.7 °F /  19.3 °C 61.7 °F /  16.5 °C 29.9 in /  1013.8 hPa Calm     84 % 0 in /  0.0 mm
05:10 67.3 °F /  19.6 °C 61.9 °F /  16.6 °C 29.9 in /  1013.8 hPa South 1 mph /  1.6 km/h 3 mph /  4.8 km/h 83 % 0 in /  0.0 mm
05:20 68.2 °F /  20.1 °C 62.8 °F /  17.1 °C 29.9 in /  1013.8 hPa SE 1 mph /  1.6 km/h 3 mph /  4.8 km/h 83 % 0 in /  0.0 mm
05:30 68.4 °F /  20.2 °C 62.2 °F /  16.8 °C 29.9 in /  1013.8 hPa East 1 mph /  1.6 km/h 3 mph /  4.8 km/h 81 % 0 in /  0.0 mm
05:40 68.2 °F /  20.1 °C 61.9 °F /  16.6 °C 29.9 in /  1013.8 hPa NE 1 mph /  1.6 km/h 4 mph /  6.4 km/h 80 % 0 in /  0.0 mm
05:50 68.2 °F /  20.1 °C 62.1 °F /  16.7 °C 29.9 in /  1013.8 hPa Calm   2 mph /  3.2 km/h 81 % 0 in /  0.0 mm
10:56 73 °F /  22.8 °C 65.8 °F /  18.8 °C 29.9 in /  1013.8 hPa Calm   1.6 mph /  2.6 km/h 78 % 0 in /  0.0 mm
11:01 73.9 °F /  23.3 °C 65.5 °F /  18.6 °C 29.9 in /  1013.8 hPa SW 2.3 mph /  3.7 km/h 2.3 mph /  3.7 km/h 75 % 0 in /  0.0 mm
11:06 74.3 °F /  23.5 °C 65.5 °F /  18.6 °C 29.9 in /  1013.8 hPa SSW 2.3 mph /  3.7 km/h 2.3 mph /  3.7 km/h 74 % 0 in /  0.0 mm
11:11 75.2 °F /  24.0 °C 65.7 °F /  18.7 °C 29.9 in /  1013.8 hPa SSW 4 mph /  6.4 km/h 4 mph /  6.4 km/h 72 % 0 in /  0.0 mm
11:16 75.4 °F /  24.1 °C 64.6 °F /  18.1 °C 29.9 in /  1013.8 hPa South 2.3 mph /  3.7 km/h 2.3 mph /  3.7 km/h 69 % 0 in /  0.0 mm
11:21 75.6 °F /  24.2 °C 64.8 °F /  18.2 °C 29.9 in /  1013.8 hPa WSW 2.3 mph /  3.7 km/h 2.3 mph /  3.7 km/h 69 % 0 in /  0.0 mm
11:26 76.1 °F /  24.5 °C 65.1 °F /  18.4 °C 29.9 in /  1013.8 hPa SE 1.4 mph /  2.3 km/h 1.4 mph /  2.3 km/h 69 % 0 in /  0.0 mm
11:31 75.2 °F /  24.0 °C 63.9 °F /  17.7 °C 29.9 in /  1013.8 hPa SSE 4.6 mph /  7.4 km/h 4.6 mph /  7.4 km/h 68 % 0 in /  0.0 mm
11:36 74.8 °F /  23.8 °C 64 °F /  17.8 °C 29.9 in /  1013.8 hPa SE 2.6 mph /  4.2 km/h 2.9 mph /  4.7 km/h 69 % 0 in /  0.0 mm
11:41 75.6 °F /  24.2 °C 64.8 °F /  18.2 °C 30 in /  1014.8 hPa ESE 1.4 mph /  2.3 km/h 1.4 mph /  2.3 km/h 69 % 0 in /  0.0 mm
11:46 76.3 °F /  24.6 °C 64.9 °F /  18.3 °C 30 in /  1014.8 hPa SW 2.3 mph /  3.7 km/h 2.3 mph /  3.7 km/h 68 % 0 in /  0.0 mm
11:51 77.4 °F /  25.2 °C 65.1 °F /  18.4 °C 30 in /  1014.8 hPa WSW 4.6 mph /  7.4 km/h 4.6 mph /  7.4 km/h 66 % 0 in /  0.0 mm
11:56 78.6 °F /  25.9 °C 64.9 °F /  18.3 °C 29.9 in /  1013.8 hPa SSW 1.4 mph /  2.3 km/h 1.4 mph /  2.3 km/h 63 % 0 in /  0.0 mm
12:01 78.6 °F /  25.9 °C 64.9 °F /  18.3 °C 29.9 in /  1013.8 hPa WSW 5.8 mph /  9.3 km/h 5.8 mph /  9.3 km/h 63 % 0 in /  0.0 mm
12:06 79.5 °F /  26.4 °C 65.5 °F /  18.6 °C 29.9 in /  1013.8 hPa South 2.6 mph /  4.2 km/h 2.6 mph /  4.2 km/h 62 % 0 in /  0.0 mm
12:11 80.6 °F /  27.0 °C 65.5 °F /  18.6 °C 29.9 in /  1012.8 hPa SSW 3.8 mph /  6.1 km/h 3.8 mph /  6.1 km/h 60 % 0 in /  0.0 mm
12:16 81.1 °F /  27.3 °C 64.9 °F /  18.3 °C 29.9 in /  1012.8 hPa SW 2.3 mph /  3.7 km/h 2.3 mph /  3.7 km/h 58 % 0 in /  0.0 mm
12:21 81.3 °F /  27.4 °C 64.6 °F /  18.1 °C 29.9 in /  1012.8 hPa WSW 4.6 mph /  7.4 km/h 4.6 mph /  7.4 km/h 57 % 0 in /  0.0 mm
12:26 81 °F /  27.2 °C 63.9 °F /  17.7 °C 29.9 in /  1013.8 hPa SW 4.6 mph /  7.4 km/h 4.6 mph /  7.4 km/h 56 % 0 in /  0.0 mm
12:31 81.5 °F /  27.5 °C 63.9 °F /  17.7 °C 29.9 in /  1013.8 hPa WSW 5.8 mph /  9.3 km/h 5.8 mph /  9.3 km/h 55 % 0 in /  0.0 mm
12:36 82.8 °F /  28.2 °C 64.4 °F /  18.0 °C 29.9 in /  1013.8 hPa SSE 4.6 mph /  7.4 km/h 4.6 mph /  7.4 km/h 54 % 0 in /  0.0 mm
12:41 82.6 °F /  28.1 °C 63.7 °F /  17.6 °C 29.9 in /  1013.8 hPa West 5.8 mph /  9.3 km/h 5.8 mph /  9.3 km/h 53 % 0 in /  0.0 mm
12:46 82.8 °F /  28.2 °C 63.9 °F /  17.7 °C 29.9 in /  1013.8 hPa SW 6.2 mph /  10.0 km/h 6.2 mph /  10.0 km/h 53 % 0 in /  0.0 mm
12:51 82 °F /  27.8 °C 62.8 °F /  17.1 °C 29.9 in /  1013.8 hPa SW 5.8 mph /  9.3 km/h 5.8 mph /  9.3 km/h 52 % 0 in /  0.0 mm
12:56 82 °F /  27.8 °C 62.8 °F /  17.1 °C 29.9 in /  1013.8 hPa SW 3.5 mph /  5.6 km/h 3.5 mph /  5.6 km/h 52 % 0 in /  0.0 mm
13:01 81.9 °F /  27.7 °C 62.4 °F /  16.9 °C 29.9 in /  1013.8 hPa SW 6.9 mph /  11.1 km/h 6.9 mph /  11.1 km/h 52 % 0 in /  0.0 mm
13:06 81.5 °F /  27.5 °C 62.2 °F /  16.8 °C 29.9 in /  1013.8 hPa SW 7.4 mph /  11.9 km/h 7.4 mph /  11.9 km/h 52 % 0 in /  0.0 mm
13:11 81.1 °F /  27.3 °C 61.9 °F /  16.6 °C 29.9 in /  1013.8 hPa South 3.6 mph /  5.8 km/h 3.6 mph /  5.8 km/h 52 % 0 in /  0.0 mm
13:16 81.3 °F /  27.4 °C 62.1 °F /  16.7 °C 29.9 in /  1013.8 hPa SW 5.8 mph /  9.3 km/h 5.8 mph /  9.3 km/h 52 % 0 in /  0.0 mm
13:21 81.3 °F /  27.4 °C 61.5 °F /  16.4 °C 29.9 in /  1013.8 hPa SW 8.1 mph /  13.0 km/h 8.1 mph /  13.0 km/h 51 % 0 in /  0.0 mm
13:26 81.7 °F /  27.6 °C 62.2 °F /  16.8 °C 29.9 in /  1013.8 hPa SW 4.6 mph /  7.4 km/h 4.6 mph /  7.4 km/h 52 % 0 in /  0.0 mm
13:31 82.4 °F /  28.0 °C 62.4 °F /  16.9 °C 29.9 in /  1013.8 hPa WNW 4.6 mph /  7.4 km/h 4.6 mph /  7.4 km/h 51 % 0 in /  0.0 mm
13:41 82.4 °F /  28.0 °C 61.3 °F /  16.3 °C 29.9 in /  1013.8 hPa WSW 5.8 mph /  9.3 km/h 5.8 mph /  9.3 km/h 49 % 0 in /  0.0 mm
13:46 82.6 °F /  28.1 °C 62.1 °F /  16.7 °C 29.9 in /  1013.8 hPa SSW 8.1 mph /  13.0 km/h 8.1 mph /  13.0 km/h 50 % 0 in /  0.0 mm
13:51 82.8 °F /  28.2 °C 62.2 °F /  16.8 °C 29.9 in /  1013.8 hPa SW 10.4 mph /  16.7 km/h 10.4 mph /  16.7 km/h 50 % 0 in /  0.0 mm
13:56 82 °F /  27.8 °C 61.5 °F /  16.4 °C 29.9 in /  1013.8 hPa South 4.6 mph /  7.4 km/h 4.6 mph /  7.4 km/h 50 % 0 in /  0.0 mm
14:01 82 °F /  27.8 °C 61.5 °F /  16.4 °C 29.9 in /  1013.8 hPa SE 6.9 mph /  11.1 km/h 6.9 mph /  11.1 km/h 50 % 0 in /  0.0 mm
14:06 82 °F /  27.8 °C 61 °F /  16.1 °C 29.9 in /  1013.8 hPa SW 6 mph /  9.7 km/h 6 mph /  9.7 km/h 49 % 0 in /  0.0 mm
14:11 82 °F /  27.8 °C 61 °F /  16.1 °C 29.9 in /  1013.8 hPa SSW 5.8 mph /  9.3 km/h 5.8 mph /  9.3 km/h 49 % 0 in /  0.0 mm
14:16 81.3 °F /  27.4 °C 60.3 °F /  15.7 °C 29.9 in /  1013.8 hPa WSW 11.2 mph /  18.0 km/h 11.2 mph /  18.0 km/h 49 % 0 in /  0.0 mm
14:21 80.8 °F /  27.1 °C 59.4 °F /  15.2 °C 29.9 in /  1013.8 hPa WSW 8.1 mph /  13.0 km/h 8.1 mph /  13.0 km/h 48 % 0 in /  0.0 mm
14:26 80.8 °F /  27.1 °C 59.4 °F /  15.2 °C 29.9 in /  1013.8 hPa SSE 8.1 mph /  13.0 km/h 8.1 mph /  13.0 km/h 48 % 0 in /  0.0 mm
14:27 80.8 °F /  27.1 °C 59.4 °F /  15.2 °C 29.9 in /  1013.8 hPa SW 3.6 mph /  5.8 km/h 3.8 mph /  6.1 km/h 48 % 0 in /  0.0 mm
14:32 80.6 °F /  27.0 °C 59.7 °F /  15.4 °C 29.9 in /  1013.8 hPa SSW 6.9 mph /  11.1 km/h 6.9 mph /  11.1 km/h 49 % 0 in /  0.0 mm
14:37 80.4 °F /  26.9 °C 60.1 °F /  15.6 °C 29.9 in /  1013.8 hPa SSW 5.8 mph /  9.3 km/h 5.8 mph /  9.3 km/h 50 % 0 in /  0.0 mm
14:42 80.1 °F /  26.7 °C 59.2 °F /  15.1 °C 29.9 in /  1013.8 hPa SW 9.2 mph /  14.8 km/h 9.2 mph /  14.8 km/h 49 % 0 in /  0.0 mm
14:47 79.9 °F /  26.6 °C 59 °F /  15.0 °C 29.9 in /  1013.8 hPa SW 10.4 mph /  16.7 km/h 10.4 mph /  16.7 km/h 49 % 0 in /  0.0 mm
14:52 79.5 °F /  26.4 °C 59.2 °F /  15.1 °C 29.9 in /  1013.8 hPa SSW 8.1 mph /  13.0 km/h 8.1 mph /  13.0 km/h 50 % 0 in /  0.0 mm
14:57 79.7 °F /  26.5 °C 59.4 °F /  15.2 °C 29.9 in /  1013.8 hPa WSW 6.9 mph /  11.1 km/h 6.9 mph /  11.1 km/h 50 % 0 in /  0.0 mm
15:02 79.3 °F /  26.3 °C 59.2 °F /  15.1 °C 29.9 in /  1013.8 hPa SW 8.1 mph /  13.0 km/h 8.1 mph /  13.0 km/h 50 % 0 in /  0.0 mm
15:07 79.2 °F /  26.2 °C 58.8 °F /  14.9 °C 29.9 in /  1013.8 hPa WSW 7.8 mph /  12.6 km/h 7.8 mph /  12.6 km/h 50 % 0 in /  0.0 mm
15:12 79.3 °F /  26.3 °C 59.5 °F /  15.3 °C 29.9 in /  1013.8 hPa SW 4.6 mph /  7.4 km/h 4.6 mph /  7.4 km/h 51 % 0 in /  0.0 mm
15:17 79.5 °F /  26.4 °C 59.7 °F /  15.4 °C 29.9 in /  1013.8 hPa SSW 6.9 mph /  11.1 km/h 6.9 mph /  11.1 km/h 51 % 0 in /  0.0 mm
15:22 79.5 °F /  26.4 °C 59.7 °F /  15.4 °C 29.9 in /  1013.8 hPa SW 11.5 mph /  18.5 km/h 11.5 mph /  18.5 km/h 51 % 0 in /  0.0 mm
15:27 79.5 °F /  26.4 °C 59.7 °F /  15.4 °C 29.9 in /  1013.8 hPa SSW 6.9 mph /  11.1 km/h 6.9 mph /  11.1 km/h 51 % 0 in /  0.0 mm
15:32 79.9 °F /  26.6 °C 60.1 °F /  15.6 °C 29.9 in /  1013.8 hPa SW 5.8 mph /  9.3 km/h 5.8 mph /  9.3 km/h 51 % 0 in /  0.0 mm
15:37 79.7 °F /  26.5 °C 60.1 °F /  15.6 °C 29.9 in /  1013.8 hPa SW 9.2 mph /  14.8 km/h 9.2 mph /  14.8 km/h 51 % 0 in /  0.0 mm
15:42 79.5 °F /  26.4 °C 59.7 °F /  15.4 °C 29.9 in /  1013.8 hPa SW 7.4 mph /  11.9 km/h 7.4 mph /  11.9 km/h 51 % 0 in /  0.0 mm
15:47 79.5 °F /  26.4 °C 59.2 °F /  15.1 °C 29.9 in /  1013.8 hPa SW 9.2 mph /  14.8 km/h 9.2 mph /  14.8 km/h 50 % 0 in /  0.0 mm
15:57 79.5 °F /  26.4 °C 59.7 °F /  15.4 °C 29.9 in /  1013.8 hPa SW 9.2 mph /  14.8 km/h 9.2 mph /  14.8 km/h 51 % 0 in /  0.0 mm
16:02 79.3 °F /  26.3 °C 59.2 °F /  15.1 °C 29.9 in /  1013.8 hPa SW 8.1 mph /  13.0 km/h 8.1 mph /  13.0 km/h 50 % 0 in /  0.0 mm
16:07 79.2 °F /  26.2 °C 59.5 °F /  15.3 °C 29.9 in /  1013.8 hPa SW 10.4 mph /  16.7 km/h 10.4 mph /  16.7 km/h 51 % 0 in /  0.0 mm
16:12 79.3 °F /  26.3 °C 59.5 °F /  15.3 °C 29.9 in /  1012.8 hPa SSE 7.6 mph /  12.2 km/h 7.6 mph /  12.2 km/h 51 % 0 in /  0.0 mm
16:17 79.3 °F /  26.3 °C 59.5 °F /  15.3 °C 29.9 in /  1012.8 hPa SSW 5.8 mph /  9.3 km/h 5.8 mph /  9.3 km/h 51 % 0 in /  0.0 mm
16:22 79 °F /  26.1 °C 59.4 °F /  15.2 °C 29.9 in /  1012.8 hPa SW 5.8 mph /  9.3 km/h 5.8 mph /  9.3 km/h 51 % 0 in /  0.0 mm
16:27 78.8 °F /  26.0 °C 59.2 °F /  15.1 °C 29.9 in /  1012.8 hPa SW 8.1 mph /  13.0 km/h 8.1 mph /  13.0 km/h 51 % 0 in /  0.0 mm
16:32 78.8 °F /  26.0 °C 59.2 °F /  15.1 °C 29.9 in /  1012.8 hPa SW 8.1 mph /  13.0 km/h 8.1 mph /  13.0 km/h 51 % 0 in /  0.0 mm
16:37 79 °F /  26.1 °C 59.4 °F /  15.2 °C 29.9 in /  1012.8 hPa West 5.8 mph /  9.3 km/h 5.9 mph /  9.5 km/h 51 % 0 in /  0.0 mm
16:42 78.8 °F /  26.0 °C 59.2 °F /  15.1 °C 29.9 in /  1011.7 hPa South 9.2 mph /  14.8 km/h 9.2 mph /  14.8 km/h 51 % 0 in /  0.0 mm
16:52 78.4 °F /  25.8 °C 58.8 °F /  14.9 °C 29.9 in /  1011.7 hPa SSW 10.4 mph /  16.7 km/h 10.4 mph /  16.7 km/h 51 % 0 in /  0.0 mm
16:57 78.6 °F /  25.9 °C 59.5 °F /  15.3 °C 29.9 in /  1012.8 hPa SSW 5.4 mph /  8.7 km/h 5.4 mph /  8.7 km/h 52 % 0 in /  0.0 mm
17:02 78.4 °F /  25.8 °C 59.4 °F /  15.2 °C 29.9 in /  1012.8 hPa SW 6.9 mph /  11.1 km/h 6.9 mph /  11.1 km/h 52 % 0 in /  0.0 mm
17:07 78.1 °F /  25.6 °C 59.5 °F /  15.3 °C 29.9 in /  1012.8 hPa SSE 5.8 mph /  9.3 km/h 5.8 mph /  9.3 km/h 53 % 0 in /  0.0 mm
17:12 77.9 °F /  25.5 °C 59.4 °F /  15.2 °C 29.9 in /  1012.8 hPa SW 8.1 mph /  13.0 km/h 8.1 mph /  13.0 km/h 53 % 0 in /  0.0 mm
17:17 77.7 °F /  25.4 °C 59.2 °F /  15.1 °C 29.9 in /  1012.8 hPa SW 8.1 mph /  13.0 km/h 8.1 mph /  13.0 km/h 53 % 0 in /  0.0 mm
17:22 77.7 °F /  25.4 °C 59.2 °F /  15.1 °C 29.9 in /  1012.8 hPa WSW 5.8 mph /  9.3 km/h 5.8 mph /  9.3 km/h 53 % 0 in /  0.0 mm
17:27 77.7 °F /  25.4 °C 59.2 °F /  15.1 °C 29.9 in /  1012.8 hPa WSW 5.8 mph /  9.3 km/h 5.8 mph /  9.3 km/h 53 % 0 in /  0.0 mm
17:32 77.7 °F /  25.4 °C 59.2 °F /  15.1 °C 29.9 in /  1012.8 hPa South 10.4 mph /  16.7 km/h 10.4 mph /  16.7 km/h 53 % 0 in /  0.0 mm
17:37 77.4 °F /  25.2 °C 58.8 °F /  14.9 °C 29.9 in /  1012.8 hPa SSW 8.1 mph /  13.0 km/h 8.1 mph /  13.0 km/h 53 % 0 in /  0.0 mm
17:52 77.5 °F /  25.3 °C 59.5 °F /  15.3 °C 29.9 in /  1012.8 hPa SSW 3.5 mph /  5.6 km/h 3.5 mph /  5.6 km/h 54 % 0 in /  0.0 mm
17:57 77.5 °F /  25.3 °C 59.5 °F /  15.3 °C 29.9 in /  1012.8 hPa South 3.5 mph /  5.6 km/h 3.5 mph /  5.6 km/h 54 % 0 in /  0.0 mm
18:02 77.5 °F /  25.3 °C 60.1 °F /  15.6 °C 29.9 in /  1012.8 hPa WSW 5.8 mph /  9.3 km/h 5.8 mph /  9.3 km/h 55 % 0 in /  0.0 mm
18:07 77.7 °F /  25.4 °C 60.3 °F /  15.7 °C 29.9 in /  1012.8 hPa SW 5.8 mph /  9.3 km/h 5.8 mph /  9.3 km/h 55 % 0 in /  0.0 mm
18:12 77.4 °F /  25.2 °C 59.9 °F /  15.5 °C 29.9 in /  1012.8 hPa WSW 5.8 mph /  9.3 km/h 5.8 mph /  9.3 km/h 55 % 0 in /  0.0 mm
18:17 77.2 °F /  25.1 °C 59.7 °F /  15.4 °C 29.9 in /  1012.8 hPa South 5.8 mph /  9.3 km/h 5.8 mph /  9.3 km/h 55 % 0 in /  0.0 mm
18:22 77 °F /  25.0 °C 59.5 °F /  15.3 °C 29.9 in /  1012.8 hPa South 4.6 mph /  7.4 km/h 4.6 mph /  7.4 km/h 55 % 0 in /  0.0 mm
18:27 76.8 °F /  24.9 °C 60.4 °F /  15.8 °C 29.9 in /  1012.8 hPa SW 4.6 mph /  7.4 km/h 4.6 mph /  7.4 km/h 57 % 0 in /  0.0 mm
18:32 76.6 °F /  24.8 °C 60.3 °F /  15.7 °C 29.9 in /  1012.8 hPa WSW 7.6 mph /  12.2 km/h 7.6 mph /  12.2 km/h 57 % 0 in /  0.0 mm
18:37 76.3 °F /  24.6 °C 60.4 °F /  15.8 °C 29.9 in /  1012.8 hPa SSW 4.6 mph /  7.4 km/h 4.6 mph /  7.4 km/h 58 % 0 in /  0.0 mm
18:42 76.3 °F /  24.6 °C 60.4 °F /  15.8 °C 29.9 in /  1011.7 hPa West 5.8 mph /  9.3 km/h 5.8 mph /  9.3 km/h 58 % 0 in /  0.0 mm
18:47 76.3 °F /  24.6 °C 60.4 °F /  15.8 °C 29.9 in /  1011.7 hPa South 5.8 mph /  9.3 km/h 5.8 mph /  9.3 km/h 58 % 0 in /  0.0 mm
18:52 76.3 °F /  24.6 °C 61 °F /  16.1 °C 29.9 in /  1011.7 hPa WSW 9.2 mph /  14.8 km/h 9.2 mph /  14.8 km/h 59 % 0 in /  0.0 mm
18:57 76.1 °F /  24.5 °C 60.6 °F /  15.9 °C 29.9 in /  1011.7 hPa WSW 4 mph /  6.4 km/h 4 mph /  6.4 km/h 59 % 0 in /  0.0 mm
19:02 76.1 °F /  24.5 °C 61.2 °F /  16.2 °C 29.9 in /  1011.7 hPa SW 3.5 mph /  5.6 km/h 3.5 mph /  5.6 km/h 60 % 0 in /  0.0 mm
19:07 75.7 °F /  24.3 °C 61 °F /  16.1 °C 29.9 in /  1011.7 hPa SSW 3.5 mph /  5.6 km/h 3.5 mph /  5.6 km/h 60 % 0 in /  0.0 mm
19:12 75.7 °F /  24.3 °C 61 °F /  16.1 °C 29.9 in /  1011.7 hPa SW 4.6 mph /  7.4 km/h 4.6 mph /  7.4 km/h 60 % 0 in /  0.0 mm
19:17 75.6 °F /  24.2 °C 60.6 °F /  15.9 °C 29.9 in /  1011.7 hPa SSW 5.8 mph /  9.3 km/h 5.8 mph /  9.3 km/h 60 % 0 in /  0.0 mm
19:22 75.2 °F /  24.0 °C 60.4 °F /  15.8 °C 29.9 in /  1011.7 hPa WSW 4.7 mph /  7.6 km/h 4.7 mph /  7.6 km/h 60 % 0 in /  0.0 mm
19:27 75.2 °F /  24.0 °C 60.8 °F /  16.0 °C 29.9 in /  1011.7 hPa SW 5.8 mph /  9.3 km/h 5.8 mph /  9.3 km/h 61 % 0 in /  0.0 mm
19:32 75.2 °F /  24.0 °C 60.8 °F /  16.0 °C 29.9 in /  1011.7 hPa SW 5.8 mph /  9.3 km/h 5.8 mph /  9.3 km/h 61 % 0 in /  0.0 mm
19:37 75 °F /  23.9 °C 61.2 °F /  16.2 °C 29.9 in /  1011.7 hPa SW 5.8 mph /  9.3 km/h 5.8 mph /  9.3 km/h 62 % 0 in /  0.0 mm
19:42 74.8 °F /  23.8 °C 61 °F /  16.1 °C 29.9 in /  1011.7 hPa SW 7.4 mph /  11.9 km/h 7.4 mph /  11.9 km/h 62 % 0 in /  0.0 mm
19:47 74.8 °F /  23.8 °C 61.3 °F /  16.3 °C 29.9 in /  1011.7 hPa WSW 2.4 mph /  3.9 km/h 2.4 mph /  3.9 km/h 63 % 0 in /  0.0 mm
19:52 74.7 °F /  23.7 °C 61.2 °F /  16.2 °C 29.9 in /  1011.7 hPa WSW 4.6 mph /  7.4 km/h 4.6 mph /  7.4 km/h 63 % 0 in /  0.0 mm
19:57 74.7 °F /  23.7 °C 61.2 °F /  16.2 °C 29.9 in /  1011.7 hPa SSW 3.5 mph /  5.6 km/h 3.5 mph /  5.6 km/h 63 % 0 in /  0.0 mm
20:02 74.5 °F /  23.6 °C 61.2 °F /  16.2 °C 29.9 in /  1011.7 hPa SW 2.4 mph /  3.9 km/h 2.4 mph /  3.9 km/h 63 % 0 in /  0.0 mm
20:07 74.5 °F /  23.6 °C 61.2 °F /  16.2 °C 29.9 in /  1011.7 hPa SW 3.5 mph /  5.6 km/h 3.5 mph /  5.6 km/h 63 % 0 in /  0.0 mm
20:12 74.3 °F /  23.5 °C 61 °F /  16.1 °C 29.9 in /  1011.7 hPa SW 2.3 mph /  3.7 km/h 2.6 mph /  4.2 km/h 63 % 0 in /  0.0 mm
20:17 74.1 °F /  23.4 °C 61.2 °F /  16.2 °C 29.9 in /  1011.7 hPa WSW 3.5 mph /  5.6 km/h 3.5 mph /  5.6 km/h 64 % 0 in /  0.0 mm
20:20 70.3 °F /  21.3 °C 62.4 °F /  16.9 °C 29.9 in /  1011.7 hPa SW 1 mph /  1.6 km/h 2 mph /  3.2 km/h 76 % 0 in /  0.0 mm
20:22 73.9 °F /  23.3 °C 61 °F /  16.1 °C 29.9 in /  1011.7 hPa SW 2.4 mph /  3.9 km/h 2.6 mph /  4.2 km/h 64 % 0 in /  0.0 mm
20:27 73.9 °F /  23.3 °C 61 °F /  16.1 °C 29.9 in /  1011.7 hPa WSW 5.8 mph /  9.3 km/h 5.8 mph /  9.3 km/h 64 % 0 in /  0.0 mm
20:30 70.3 °F /  21.3 °C 62.4 °F /  16.9 °C 29.9 in /  1011.7 hPa SW 1 mph /  1.6 km/h 2 mph /  3.2 km/h 76 % 0 in /  0.0 mm
20:32 73.8 °F /  23.2 °C 61.3 °F /  16.3 °C 29.9 in /  1011.7 hPa SW 2.4 mph /  3.9 km/h 2.4 mph /  3.9 km/h 65 % 0 in /  0.0 mm
20:37 73.6 °F /  23.1 °C 61.2 °F /  16.2 °C 29.9 in /  1011.7 hPa WSW 4.6 mph /  7.4 km/h 4.6 mph /  7.4 km/h 65 % 0 in /  0.0 mm
20:40 70.5 °F /  21.4 °C 62.6 °F /  17.0 °C 29.9 in /  1011.7 hPa WSW 2 mph /  3.2 km/h 3 mph /  4.8 km/h 76 % 0 in /  0.0 mm
20:42 73.6 °F /  23.1 °C 61.2 °F /  16.2 °C 29.9 in /  1011.7 hPa WSW 2.3 mph /  3.7 km/h 2.3 mph /  3.7 km/h 65 % 0 in /  0.0 mm
20:47 73.6 °F /  23.1 °C 61.5 °F /  16.4 °C 29.9 in /  1011.7 hPa WSW 2.3 mph /  3.7 km/h 2.3 mph /  3.7 km/h 66 % 0 in /  0.0 mm
20:48 73.6 °F /  23.1 °C 61.2 °F /  16.2 °C 29.9 in /  1011.7 hPa WNW 2.3 mph /  3.7 km/h 2.3 mph /  3.7 km/h 65 % 0 in /  0.0 mm
20:50 70.5 °F /  21.4 °C 63 °F /  17.2 °C 29.9 in /  1011.7 hPa WSW 1 mph /  1.6 km/h 3 mph /  4.8 km/h 77 % 0 in /  0.0 mm
20:53 73.4 °F /  23.0 °C 61 °F /  16.1 °C 29.9 in /  1011.7 hPa SSW 4.6 mph /  7.4 km/h 4.6 mph /  7.4 km/h 65 % 0 in /  0.0 mm
20:58 73.4 °F /  23.0 °C 61.3 °F /  16.3 °C 29.9 in /  1011.7 hPa SW 3.5 mph /  5.6 km/h 3.5 mph /  5.6 km/h 66 % 0 in /  0.0 mm
21:00 70.5 °F /  21.4 °C 63 °F /  17.2 °C 29.9 in /  1011.7 hPa Calm   2 mph /  3.2 km/h 77 % 0 in /  0.0 mm
21:03 73.2 °F /  22.9 °C 61.2 °F /  16.2 °C 29.9 in /  1011.7 hPa WSW 4.6 mph /  7.4 km/h 4.6 mph /  7.4 km/h 66 % 0 in /  0.0 mm
21:08 73.2 °F /  22.9 °C 61.2 °F /  16.2 °C 29.9 in /  1011.7 hPa WSW 3.5 mph /  5.6 km/h 3.5 mph /  5.6 km/h 66 % 0 in /  0.0 mm
21:10 70.3 °F /  21.3 °C 62.8 °F /  17.1 °C 29.9 in /  1011.7 hPa SW 1 mph /  1.6 km/h 3 mph /  4.8 km/h 77 % 0 in /  0.0 mm
21:18 73 °F /  22.8 °C 61 °F /  16.1 °C 29.9 in /  1011.7 hPa SSW 5.8 mph /  9.3 km/h 5.8 mph /  9.3 km/h 66 % 0 in /  0.0 mm
21:20 70.2 °F /  21.2 °C 62.6 °F /  17.0 °C 29.9 in /  1011.7 hPa SW 1 mph /  1.6 km/h 2 mph /  3.2 km/h 77 % 0 in /  0.0 mm
21:23 72.9 °F /  22.7 °C 61.3 °F /  16.3 °C 29.9 in /  1011.7 hPa SW 3.5 mph /  5.6 km/h 3.5 mph /  5.6 km/h 67 % 0 in /  0.0 mm
21:28 72.9 °F /  22.7 °C 61.3 °F /  16.3 °C 29.9 in /  1012.8 hPa WSW 4.6 mph /  7.4 km/h 4.6 mph /  7.4 km/h 67 % 0 in /  0.0 mm
21:30 70.2 °F /  21.2 °C 63 °F /  17.2 °C 29.9 in /  1012.8 hPa SW 1 mph /  1.6 km/h 2 mph /  3.2 km/h 78 % 0 in /  0.0 mm
21:33 72.7 °F /  22.6 °C 61.5 °F /  16.4 °C 29.9 in /  1012.8 hPa WSW 2.3 mph /  3.7 km/h 2.3 mph /  3.7 km/h 68 % 0 in /  0.0 mm
21:38 72.7 °F /  22.6 °C 61.5 °F /  16.4 °C 29.9 in /  1012.8 hPa SW 2.3 mph /  3.7 km/h 2.3 mph /  3.7 km/h 68 % 0 in /  0.0 mm
21:40 70.2 °F /  21.2 °C 63 °F /  17.2 °C 29.9 in /  1012.8 hPa Calm   1 mph /  1.6 km/h 78 % 0 in /  0.0 mm
21:43 72.5 °F /  22.5 °C 61.3 °F /  16.3 °C 29.9 in /  1012.8 hPa SSW 2.3 mph /  3.7 km/h 2.3 mph /  3.7 km/h 68 % 0 in /  0.0 mm
21:48 72.5 °F /  22.5 °C 61.7 °F /  16.5 °C 29.9 in /  1012.8 hPa SW 2.3 mph /  3.7 km/h 2.3 mph /  3.7 km/h 69 % 0 in /  0.0 mm
21:50 70.2 °F /  21.2 °C 63 °F /  17.2 °C 29.9 in /  1011.7 hPa WSW 1 mph /  1.6 km/h   78 % 0 in /  0.0 mm
21:58 72.5 °F /  22.5 °C 61.7 °F /  16.5 °C 29.9 in /  1012.8 hPa WSW 1.4 mph /  2.3 km/h 1.4 mph /  2.3 km/h 69 % 0 in /  0.0 mm
22:00 70.3 °F /  21.3 °C 63.1 °F /  17.3 °C 29.9 in /  1012.8 hPa WSW 1 mph /  1.6 km/h 1 mph /  1.6 km/h 78 % 0 in /  0.0 mm
22:03 72.3 °F /  22.4 °C 61.5 °F /  16.4 °C 29.9 in /  1012.8 hPa Calm     69 % 0 in /  0.0 mm
22:08 72.1 °F /  22.3 °C 61.3 °F /  16.3 °C 29.9 in /  1012.8 hPa SW 2.3 mph /  3.7 km/h 2.3 mph /  3.7 km/h 69 % 0 in /  0.0 mm
22:10 70.3 °F /  21.3 °C 63.5 °F /  17.5 °C 29.9 in /  1012.8 hPa Calm     79 % 0 in /  0.0 mm
22:13 72 °F /  22.2 °C 61.5 °F /  16.4 °C 29.9 in /  1012.8 hPa WSW 2.3 mph /  3.7 km/h 2.3 mph /  3.7 km/h 70 % 0 in /  0.0 mm
22:18 72 °F /  22.2 °C 61.5 °F /  16.4 °C 29.9 in /  1012.8 hPa WSW 1.4 mph /  2.3 km/h 1.4 mph /  2.3 km/h 70 % 0 in /  0.0 mm
22:20 70.3 °F /  21.3 °C 63.5 °F /  17.5 °C 29.9 in /  1011.7 hPa Calm   1 mph /  1.6 km/h 79 % 0 in /  0.0 mm
22:23 72 °F /  22.2 °C 61.5 °F /  16.4 °C 29.9 in /  1012.8 hPa Calm     70 % 0 in /  0.0 mm
22:28 71.8 °F /  22.1 °C 61.5 °F /  16.4 °C 29.9 in /  1012.8 hPa WSW 1.6 mph /  2.6 km/h 1.6 mph /  2.6 km/h 70 % 0 in /  0.0 mm
22:30 70.3 °F /  21.3 °C 63.1 °F /  17.3 °C 29.9 in /  1011.7 hPa NW 1 mph /  1.6 km/h 2 mph /  3.2 km/h 78 % 0 in /  0.0 mm
22:33 71.8 °F /  22.1 °C 61.9 °F /  16.6 °C 29.9 in /  1012.8 hPa West 1.4 mph /  2.3 km/h   71 % 0 in /  0.0 mm
22:38 71.6 °F /  22.0 °C 61.7 °F /  16.5 °C 29.9 in /  1012.8 hPa SW 2.3 mph /  3.7 km/h 2.3 mph /  3.7 km/h 71 % 0 in /  0.0 mm
22:40 70 °F /  21.1 °C 62.8 °F /  17.1 °C 29.9 in /  1011.7 hPa Calm   1 mph /  1.6 km/h 78 % 0 in /  0.0 mm
22:43 71.2 °F /  21.8 °C 61.7 °F /  16.5 °C 29.9 in /  1012.8 hPa SW 2.4 mph /  3.9 km/h 2.4 mph /  3.9 km/h 72 % 0 in /  0.0 mm
22:48 71.1 °F /  21.7 °C 61.5 °F /  16.4 °C 29.9 in /  1012.8 hPa SW 2.3 mph /  3.7 km/h 2.3 mph /  3.7 km/h 72 % 0 in /  0.0 mm
22:50 69.8 °F /  21.0 °C 63 °F /  17.2 °C 29.9 in /  1012.8 hPa Calm   2 mph /  3.2 km/h 79 % 0 in /  0.0 mm
22:53 71.1 °F /  21.7 °C 62.1 °F /  16.7 °C 29.9 in /  1012.8 hPa WSW 1.2 mph /  1.9 km/h   73 % 0 in /  0.0 mm
23:00 69.8 °F /  21.0 °C 62.6 °F /  17.0 °C 29.9 in /  1012.8 hPa SW 1 mph /  1.6 km/h 2 mph /  3.2 km/h 78 % 0 in /  0.0 mm
23:03 70.9 °F /  21.6 °C 62.2 °F /  16.8 °C 29.9 in /  1012.8 hPa Calm     74 % 0 in /  0.0 mm
23:08 71.1 °F /  21.7 °C 62.4 °F /  16.9 °C 29.9 in /  1012.8 hPa North 1.2 mph /  1.9 km/h 1.4 mph /  2.3 km/h 74 % 0 in /  0.0 mm
23:10 69.8 °F /  21.0 °C 62.6 °F /  17.0 °C 29.9 in /  1012.8 hPa WSW 1 mph /  1.6 km/h 2 mph /  3.2 km/h 78 % 0 in /  0.0 mm
23:13 71.2 °F /  21.8 °C 62.4 °F /  16.9 °C 29.9 in /  1011.7 hPa NNW 1.4 mph /  2.3 km/h   74 % 0 in /  0.0 mm
23:18 71.2 °F /  21.8 °C 63 °F /  17.2 °C 29.9 in /  1011.7 hPa NNE 1.2 mph /  1.9 km/h 1.2 mph /  1.9 km/h 75 % 0 in /  0.0 mm
23:20 69.8 °F /  21.0 °C 62.6 °F /  17.0 °C 29.9 in /  1012.8 hPa WSW 1 mph /  1.6 km/h 1 mph /  1.6 km/h 78 % 0 in /  0.0 mm
23:23 71.2 °F /  21.8 °C 63 °F /  17.2 °C 29.9 in /  1011.7 hPa NNE 1.2 mph /  1.9 km/h 1.2 mph /  1.9 km/h 75 % 0 in /  0.0 mm
23:28 71.1 °F /  21.7 °C 62.8 °F /  17.1 °C 29.9 in /  1011.7 hPa Calm     75 % 0 in /  0.0 mm
23:30 69.8 °F /  21.0 °C 62.6 °F /  17.0 °C 29.9 in /  1012.8 hPa Calm   1 mph /  1.6 km/h 78 % 0 in /  0.0 mm
23:33 71.1 °F /  21.7 °C 62.8 °F /  17.1 °C 29.9 in /  1011.7 hPa West 1.2 mph /  1.9 km/h   75 % 0 in /  0.0 mm
23:38 70.9 °F /  21.6 °C 62.6 °F /  17.0 °C 29.9 in /  1011.7 hPa SW 1.2 mph /  1.9 km/h 1.2 mph /  1.9 km/h 75 % 0 in /  0.0 mm
23:40 70 °F /  21.1 °C 62.8 °F /  17.1 °C 29.9 in /  1012.8 hPa Calm   2 mph /  3.2 km/h 78 % 0 in /  0.0 mm
23:43 70.7 °F /  21.5 °C 62.4 °F /  16.9 °C 29.9 in /  1012.8 hPa SW 1.2 mph /  1.9 km/h 1.4 mph /  2.3 km/h 75 % 0 in /  0.0 mm
23:48 70.5 °F /  21.4 °C 62.2 °F /  16.8 °C 29.9 in /  1012.8 hPa Calm     75 % 0 in /  0.0 mm
23:50 69.8 °F /  21.0 °C 63 °F /  17.2 °C 29.9 in /  1013.8 hPa SW 1 mph /  1.6 km/h 2 mph /  3.2 km/h 79 % 0 in /  0.0 mm
23:53 70.3 °F /  21.3 °C 62.1 °F /  16.7 °C 29.9 in /  1012.8 hPa Calm     75 % 0 in /  0.0 mm
23:58 70.3 °F /  21.3 °C 62.4 °F /  16.9 °C 29.9 in /  1012.8 hPa Calm     76 % 0 in /  0.0 mm
Meteo Sesrovires
Elogis d' Weather Underground - 3.5 mb

Guio original per  Jim McMurry - jmcmurry@mwt.net Adaptat per a la plantilla per  Wim van der Kuil - Leuven-Template.eu

Trobareu la nostra informacio del temps tambe a:

Weather Underground

AWEKAS